sensor_id;sensor_type;location;lat;lon;timestamp;temperature;humidity
7562;DHT22;3822;48.784;9.174;2023-01-15T00:01:33;12.40;93.60
7562;DHT22;3822;48.784;9.174;2023-01-15T00:04:01;12.40;93.60
7562;DHT22;3822;48.784;9.174;2023-01-15T00:06:35;12.40;93.60
7562;DHT22;3822;48.784;9.174;2023-01-15T00:09:04;12.40;93.60
7562;DHT22;3822;48.784;9.174;2023-01-15T00:11:31;12.40;93.70
7562;DHT22;3822;48.784;9.174;2023-01-15T00:14:04;12.30;93.70
7562;DHT22;3822;48.784;9.174;2023-01-15T00:16:31;12.30;93.70
7562;DHT22;3822;48.784;9.174;2023-01-15T00:18:59;12.30;93.80
7562;DHT22;3822;48.784;9.174;2023-01-15T00:21:27;12.30;93.90
7562;DHT22;3822;48.784;9.174;2023-01-15T00:23:54;12.30;93.90
7562;DHT22;3822;48.784;9.174;2023-01-15T00:26:39;12.30;93.90
7562;DHT22;3822;48.784;9.174;2023-01-15T00:29:25;12.30;93.90
7562;DHT22;3822;48.784;9.174;2023-01-15T00:32:04;12.30;93.90
7562;DHT22;3822;48.784;9.174;2023-01-15T00:34:32;12.30;93.90
7562;DHT22;3822;48.784;9.174;2023-01-15T00:37:00;12.40;93.90
7562;DHT22;3822;48.784;9.174;2023-01-15T00:39:27;12.40;94.00
7562;DHT22;3822;48.784;9.174;2023-01-15T00:41:54;12.80;94.10
7562;DHT22;3822;48.784;9.174;2023-01-15T00:44:21;12.40;93.90
7562;DHT22;3822;48.784;9.174;2023-01-15T00:46:47;12.50;94.00
7562;DHT22;3822;48.784;9.174;2023-01-15T00:49:15;12.40;94.00
7562;DHT22;3822;48.784;9.174;2023-01-15T00:51:41;12.40;94.00
7562;DHT22;3822;48.784;9.174;2023-01-15T00:54:08;12.50;94.00
7562;DHT22;3822;48.784;9.174;2023-01-15T00:56:34;12.50;94.00
7562;DHT22;3822;48.784;9.174;2023-01-15T00:59:03;12.50;93.90
7562;DHT22;3822;48.784;9.174;2023-01-15T01:01:30;12.50;93.90
7562;DHT22;3822;48.784;9.174;2023-01-15T01:03:57;12.60;94.00
7562;DHT22;3822;48.784;9.174;2023-01-15T01:06:24;12.40;93.80
7562;DHT22;3822;48.784;9.174;2023-01-15T01:08:50;12.40;93.80
7562;DHT22;3822;48.784;9.174;2023-01-15T01:11:20;13.00;94.10
7562;DHT22;3822;48.784;9.174;2023-01-15T01:13:49;12.50;93.80
7562;DHT22;3822;48.784;9.174;2023-01-15T01:16:26;12.50;93.80
7562;DHT22;3822;48.784;9.174;2023-01-15T01:18:53;12.50;93.80
7562;DHT22;3822;48.784;9.174;2023-01-15T01:21:21;12.50;93.70
7562;DHT22;3822;48.784;9.174;2023-01-15T01:23:48;12.50;93.60
7562;DHT22;3822;48.784;9.174;2023-01-15T01:26:15;12.50;93.60
7562;DHT22;3822;48.784;9.174;2023-01-15T01:28:42;12.50;93.60
7562;DHT22;3822;48.784;9.174;2023-01-15T01:31:16;12.50;93.50
7562;DHT22;3822;48.784;9.174;2023-01-15T01:33:43;12.50;93.50
7562;DHT22;3822;48.784;9.174;2023-01-15T01:36:09;12.50;93.50
7562;DHT22;3822;48.784;9.174;2023-01-15T01:38:36;12.50;93.60
7562;DHT22;3822;48.784;9.174;2023-01-15T01:41:03;12.50;93.50
7562;DHT22;3822;48.784;9.174;2023-01-15T01:43:30;12.50;93.50
7562;DHT22;3822;48.784;9.174;2023-01-15T01:45:56;12.60;93.60
7562;DHT22;3822;48.784;9.174;2023-01-15T01:48:30;12.50;93.80
7562;DHT22;3822;48.784;9.174;2023-01-15T01:51:00;12.60;93.50
7562;DHT22;3822;48.784;9.174;2023-01-15T01:53:29;12.60;93.50
7562;DHT22;3822;48.784;9.174;2023-01-15T01:55:58;12.60;93.50
7562;DHT22;3822;48.784;9.174;2023-01-15T01:58:29;12.60;93.50
7562;DHT22;3822;48.784;9.174;2023-01-15T02:00:58;12.70;93.60
7562;DHT22;3822;48.784;9.174;2023-01-15T02:03:31;12.60;93.60
7562;DHT22;3822;48.784;9.174;2023-01-15T02:06:02;12.60;93.60
7562;DHT22;3822;48.784;9.174;2023-01-15T02:08:35;12.60;93.60
7562;DHT22;3822;48.784;9.174;2023-01-15T02:11:06;12.70;93.70
7562;DHT22;3822;48.784;9.174;2023-01-15T02:13:38;12.60;93.60
7562;DHT22;3822;48.784;9.174;2023-01-15T02:16:14;12.60;93.70
7562;DHT22;3822;48.784;9.174;2023-01-15T02:18:52;12.60;93.70
7562;DHT22;3822;48.784;9.174;2023-01-15T02:27:14;12.60;93.90
7562;DHT22;3822;48.784;9.174;2023-01-15T02:30:05;12.60;94.00
7562;DHT22;3822;48.784;9.174;2023-01-15T02:32:43;12.60;94.00
7562;DHT22;3822;48.784;9.174;2023-01-15T02:37:48;12.60;94.20
7562;DHT22;3822;48.784;9.174;2023-01-15T02:40:18;12.70;94.20
7562;DHT22;3822;48.784;9.174;2023-01-15T02:42:48;12.60;94.20
7562;DHT22;3822;48.784;9.174;2023-01-15T02:45:18;12.60;94.30
7562;DHT22;3822;48.784;9.174;2023-01-15T02:47:53;12.70;94.40
7562;DHT22;3822;48.784;9.174;2023-01-15T02:50:29;12.70;94.40
7562;DHT22;3822;48.784;9.174;2023-01-15T02:53:02;12.70;94.40
7562;DHT22;3822;48.784;9.174;2023-01-15T02:55:36;12.70;94.40
7562;DHT22;3822;48.784;9.174;2023-01-15T02:58:07;12.70;94.40
7562;DHT22;3822;48.784;9.174;2023-01-15T03:00:39;12.80;94.50
7562;DHT22;3822;48.784;9.174;2023-01-15T03:03:25;12.70;94.50
7562;DHT22;3822;48.784;9.174;2023-01-15T03:06:07;12.80;94.70
7562;DHT22;3822;48.784;9.174;2023-01-15T03:08:39;12.80;94.70
7562;DHT22;3822;48.784;9.174;2023-01-15T03:16:53;12.90;94.70
7562;DHT22;3822;48.784;9.174;2023-01-15T03:22:34;12.90;94.80
7562;DHT22;3822;48.784;9.174;2023-01-15T03:25:07;12.90;94.90
7562;DHT22;3822;48.784;9.174;2023-01-15T03:27:36;12.90;94.80
7562;DHT22;3822;48.784;9.174;2023-01-15T03:30:12;13.00;94.90
7562;DHT22;3822;48.784;9.174;2023-01-15T03:32:43;12.90;94.90
7562;DHT22;3822;48.784;9.174;2023-01-15T03:35:45;12.90;94.90
7562;DHT22;3822;48.784;9.174;2023-01-15T03:38:35;13.00;94.80
7562;DHT22;3822;48.784;9.174;2023-01-15T03:41:24;13.00;94.80
7562;DHT22;3822;48.784;9.174;2023-01-15T03:44:17;13.00;94.70
7562;DHT22;3822;48.784;9.174;2023-01-15T03:47:08;13.10;94.70
7562;DHT22;3822;48.784;9.174;2023-01-15T04:01:14;13.30;94.20
7562;DHT22;3822;48.784;9.174;2023-01-15T04:03:44;13.30;94.00
7562;DHT22;3822;48.784;9.174;2023-01-15T04:06:11;13.40;94.00
7562;DHT22;3822;48.784;9.174;2023-01-15T04:08:39;13.40;93.90
7562;DHT22;3822;48.784;9.174;2023-01-15T04:11:07;13.50;93.90
7562;DHT22;3822;48.784;9.174;2023-01-15T04:13:34;13.50;93.80
7562;DHT22;3822;48.784;9.174;2023-01-15T04:16:01;13.50;93.70
7562;DHT22;3822;48.784;9.174;2023-01-15T04:18:27;13.60;93.70
7562;DHT22;3822;48.784;9.174;2023-01-15T04:20:54;13.60;93.70
7562;DHT22;3822;48.784;9.174;2023-01-15T04:23:21;13.60;93.60
7562;DHT22;3822;48.784;9.174;2023-01-15T04:25:48;13.60;93.80
7562;DHT22;3822;48.784;9.174;2023-01-15T04:28:15;13.60;93.40
7562;DHT22;3822;48.784;9.174;2023-01-15T04:30:41;13.70;93.40
7562;DHT22;3822;48.784;9.174;2023-01-15T04:33:08;13.70;93.30
7562;DHT22;3822;48.784;9.174;2023-01-15T04:35:37;13.70;93.30
7562;DHT22;3822;48.784;9.174;2023-01-15T04:38:03;13.70;93.20
7562;DHT22;3822;48.784;9.174;2023-01-15T04:40:30;13.80;93.20
7562;DHT22;3822;48.784;9.174;2023-01-15T04:43:15;13.70;93.10
7562;DHT22;3822;48.784;9.174;2023-01-15T04:45:59;13.80;93.10
7562;DHT22;3822;48.784;9.174;2023-01-15T04:48:26;13.80;93.10
7562;DHT22;3822;48.784;9.174;2023-01-15T04:50:53;13.90;93.10
7562;DHT22;3822;48.784;9.174;2023-01-15T04:53:19;13.80;93.10
7562;DHT22;3822;48.784;9.174;2023-01-15T04:55:46;13.80;93.10
7562;DHT22;3822;48.784;9.174;2023-01-15T04:58:13;13.80;93.10
7562;DHT22;3822;48.784;9.174;2023-01-15T05:00:40;14.00;93.20
7562;DHT22;3822;48.784;9.174;2023-01-15T05:03:06;14.10;93.20
7562;DHT22;3822;48.784;9.174;2023-01-15T05:05:33;13.80;93.10
7562;DHT22;3822;48.784;9.174;2023-01-15T05:07:59;14.00;93.20
7562;DHT22;3822;48.784;9.174;2023-01-15T05:10:26;13.80;93.10
7562;DHT22;3822;48.784;9.174;2023-01-15T05:12:52;13.80;93.10
7562;DHT22;3822;48.784;9.174;2023-01-15T05:15:19;13.80;93.10
7562;DHT22;3822;48.784;9.174;2023-01-15T05:17:45;13.80;93.10
7562;DHT22;3822;48.784;9.174;2023-01-15T05:20:12;13.80;93.10
7562;DHT22;3822;48.784;9.174;2023-01-15T05:22:39;13.80;93.10
7562;DHT22;3822;48.784;9.174;2023-01-15T05:25:06;13.80;93.30
7562;DHT22;3822;48.784;9.174;2023-01-15T05:27:33;13.80;93.60
7562;DHT22;3822;48.784;9.174;2023-01-15T05:30:00;13.70;93.90
7562;DHT22;3822;48.784;9.174;2023-01-15T05:32:26;13.60;93.80
7562;DHT22;3822;48.784;9.174;2023-01-15T05:34:52;13.40;93.90
7562;DHT22;3822;48.784;9.174;2023-01-15T05:37:19;13.20;93.90
7562;DHT22;3822;48.784;9.174;2023-01-15T05:39:45;13.00;94.20
7562;DHT22;3822;48.784;9.174;2023-01-15T05:42:12;12.70;94.70
7562;DHT22;3822;48.784;9.174;2023-01-15T05:44:38;12.50;94.40
7562;DHT22;3822;48.784;9.174;2023-01-15T05:47:05;12.30;94.40
7562;DHT22;3822;48.784;9.174;2023-01-15T05:49:33;12.10;94.40
7562;DHT22;3822;48.784;9.174;2023-01-15T05:52:00;12.00;94.40
7562;DHT22;3822;48.784;9.174;2023-01-15T05:54:29;11.90;94.40
7562;DHT22;3822;48.784;9.174;2023-01-15T05:56:59;12.10;94.60
7562;DHT22;3822;48.784;9.174;2023-01-15T05:59:28;11.60;94.40
7562;DHT22;3822;48.784;9.174;2023-01-15T06:01:55;11.50;94.40
7562;DHT22;3822;48.784;9.174;2023-01-15T06:04:22;11.40;94.40
7562;DHT22;3822;48.784;9.174;2023-01-15T06:06:51;11.40;94.40
7562;DHT22;3822;48.784;9.174;2023-01-15T06:09:19;12.10;94.70
7562;DHT22;3822;48.784;9.174;2023-01-15T06:11:48;11.10;94.30
7562;DHT22;3822;48.784;9.174;2023-01-15T06:14:15;11.10;94.40
7562;DHT22;3822;48.784;9.174;2023-01-15T06:16:42;11.00;94.50
7562;DHT22;3822;48.784;9.174;2023-01-15T06:19:10;10.90;94.50
7562;DHT22;3822;48.784;9.174;2023-01-15T06:21:38;10.80;94.40
7562;DHT22;3822;48.784;9.174;2023-01-15T06:24:05;10.70;94.40
7562;DHT22;3822;48.784;9.174;2023-01-15T06:26:32;10.60;94.40
7562;DHT22;3822;48.784;9.174;2023-01-15T06:28:59;10.60;94.50
7562;DHT22;3822;48.784;9.174;2023-01-15T06:31:44;10.50;94.50
7562;DHT22;3822;48.784;9.174;2023-01-15T06:34:11;10.40;94.60
7562;DHT22;3822;48.784;9.174;2023-01-15T06:36:38;10.30;94.70
7562;DHT22;3822;48.784;9.174;2023-01-15T06:39:04;10.20;94.80
7562;DHT22;3822;48.784;9.174;2023-01-15T06:41:31;10.20;94.80
7562;DHT22;3822;48.784;9.174;2023-01-15T06:44:17;10.10;94.90
7562;DHT22;3822;48.784;9.174;2023-01-15T06:47:14;10.00;94.90
7562;DHT22;3822;48.784;9.174;2023-01-15T06:49:47;9.90;95.50
7562;DHT22;3822;48.784;9.174;2023-01-15T06:52:14;9.80;95.80
7562;DHT22;3822;48.784;9.174;2023-01-15T06:54:41;9.70;95.80
7562;DHT22;3822;48.784;9.174;2023-01-15T06:57:07;9.90;96.00
7562;DHT22;3822;48.784;9.174;2023-01-15T06:59:34;9.60;96.00
7562;DHT22;3822;48.784;9.174;2023-01-15T07:02:00;9.60;96.10
7562;DHT22;3822;48.784;9.174;2023-01-15T07:04:27;9.50;96.20
7562;DHT22;3822;48.784;9.174;2023-01-15T07:06:53;9.50;96.20
7562;DHT22;3822;48.784;9.174;2023-01-15T07:09:20;9.50;96.10
7562;DHT22;3822;48.784;9.174;2023-01-15T07:11:46;9.40;96.10
7562;DHT22;3822;48.784;9.174;2023-01-15T07:14:20;9.30;96.10
7562;DHT22;3822;48.784;9.174;2023-01-15T07:16:48;9.30;96.00
7562;DHT22;3822;48.784;9.174;2023-01-15T07:19:16;9.20;95.90
7562;DHT22;3822;48.784;9.174;2023-01-15T07:21:43;9.10;95.90
7562;DHT22;3822;48.784;9.174;2023-01-15T07:24:11;9.10;95.90
7562;DHT22;3822;48.784;9.174;2023-01-15T07:26:38;9.20;95.90
7562;DHT22;3822;48.784;9.174;2023-01-15T07:29:04;9.10;95.80
7562;DHT22;3822;48.784;9.174;2023-01-15T07:31:31;9.10;95.80
7562;DHT22;3822;48.784;9.174;2023-01-15T07:33:58;9.90;96.00
7562;DHT22;3822;48.784;9.174;2023-01-15T07:36:25;10.10;95.60
7562;DHT22;3822;48.784;9.174;2023-01-15T07:38:51;8.90;95.60
7562;DHT22;3822;48.784;9.174;2023-01-15T07:41:18;9.00;95.60
7562;DHT22;3822;48.784;9.174;2023-01-15T07:44:03;8.90;95.50
7562;DHT22;3822;48.784;9.174;2023-01-15T07:46:48;8.90;95.50
7562;DHT22;3822;48.784;9.174;2023-01-15T07:49:33;8.80;95.40
7562;DHT22;3822;48.784;9.174;2023-01-15T07:52:19;8.80;95.30
7562;DHT22;3822;48.784;9.174;2023-01-15T07:54:47;8.80;95.30
7562;DHT22;3822;48.784;9.174;2023-01-15T07:57:17;8.80;95.30
7562;DHT22;3822;48.784;9.174;2023-01-15T07:59:45;8.80;95.20
7562;DHT22;3822;48.784;9.174;2023-01-15T08:02:12;8.80;95.20
7562;DHT22;3822;48.784;9.174;2023-01-15T08:04:39;8.80;95.20
7562;DHT22;3822;48.784;9.174;2023-01-15T08:07:06;10.10;95.20
7562;DHT22;3822;48.784;9.174;2023-01-15T08:09:34;8.80;95.20
7562;DHT22;3822;48.784;9.174;2023-01-15T08:12:03;9.10;95.30
7562;DHT22;3822;48.784;9.174;2023-01-15T08:14:48;8.70;95.20
7562;DHT22;3822;48.784;9.174;2023-01-15T08:17:36;8.70;95.20
7562;DHT22;3822;48.784;9.174;2023-01-15T08:20:04;8.70;95.10
7562;DHT22;3822;48.784;9.174;2023-01-15T08:22:33;8.70;95.10
7562;DHT22;3822;48.784;9.174;2023-01-15T08:25:00;8.70;95.10
7562;DHT22;3822;48.784;9.174;2023-01-15T08:27:27;8.70;95.10
7562;DHT22;3822;48.784;9.174;2023-01-15T08:29:54;8.70;95.20
7562;DHT22;3822;48.784;9.174;2023-01-15T08:32:22;8.70;95.20
7562;DHT22;3822;48.784;9.174;2023-01-15T08:34:49;9.10;95.10
7562;DHT22;3822;48.784;9.174;2023-01-15T08:37:16;8.60;94.80
7562;DHT22;3822;48.784;9.174;2023-01-15T08:39:42;8.50;94.70
7562;DHT22;3822;48.784;9.174;2023-01-15T08:42:09;8.50;94.70
7562;DHT22;3822;48.784;9.174;2023-01-15T08:44:35;8.50;94.80
7562;DHT22;3822;48.784;9.174;2023-01-15T08:47:02;8.50;94.80
7562;DHT22;3822;48.784;9.174;2023-01-15T08:49:28;8.50;94.80
7562;DHT22;3822;48.784;9.174;2023-01-15T08:51:55;8.50;95.10
7562;DHT22;3822;48.784;9.174;2023-01-15T08:54:22;8.40;94.80
7562;DHT22;3822;48.784;9.174;2023-01-15T08:56:51;8.40;94.80
7562;DHT22;3822;48.784;9.174;2023-01-15T08:59:18;6.30;94.00
7562;DHT22;3822;48.784;9.174;2023-01-15T09:01:44;8.40;94.80
7562;DHT22;3822;48.784;9.174;2023-01-15T09:04:15;8.40;94.90
7562;DHT22;3822;48.784;9.174;2023-01-15T09:06:43;8.40;94.80
7562;DHT22;3822;48.784;9.174;2023-01-15T09:09:10;8.50;94.90
7562;DHT22;3822;48.784;9.174;2023-01-15T09:11:37;8.50;94.90
7562;DHT22;3822;48.784;9.174;2023-01-15T09:14:11;8.50;94.90
7562;DHT22;3822;48.784;9.174;2023-01-15T09:16:40;8.60;94.90
7562;DHT22;3822;48.784;9.174;2023-01-15T09:19:06;8.60;94.90
7562;DHT22;3822;48.784;9.174;2023-01-15T09:21:33;7.00;94.20
7562;DHT22;3822;48.784;9.174;2023-01-15T09:24:00;8.70;94.90
7562;DHT22;3822;48.784;9.174;2023-01-15T09:26:34;8.80;94.90
7562;DHT22;3822;48.784;9.174;2023-01-15T09:29:04;8.80;94.80
7562;DHT22;3822;48.784;9.174;2023-01-15T09:31:31;8.80;94.80
7562;DHT22;3822;48.784;9.174;2023-01-15T09:33:58;8.90;94.90
7562;DHT22;3822;48.784;9.174;2023-01-15T09:36:30;8.90;94.80
7562;DHT22;3822;48.784;9.174;2023-01-15T09:38:58;9.00;94.80
7562;DHT22;3822;48.784;9.174;2023-01-15T09:41:44;9.00;94.70
7562;DHT22;3822;48.784;9.174;2023-01-15T09:44:38;9.10;94.70
7562;DHT22;3822;48.784;9.174;2023-01-15T09:47:33;9.10;94.70
7562;DHT22;3822;48.784;9.174;2023-01-15T09:55:47;9.10;94.50
7562;DHT22;3822;48.784;9.174;2023-01-15T09:58:20;9.10;94.20
7562;DHT22;3822;48.784;9.174;2023-01-15T10:00:52;9.30;94.20
7562;DHT22;3822;48.784;9.174;2023-01-15T10:03:47;9.00;93.90
7562;DHT22;3822;48.784;9.174;2023-01-15T10:06:23;8.90;93.80
7562;DHT22;3822;48.784;9.174;2023-01-15T10:11:42;8.80;93.70
7562;DHT22;3822;48.784;9.174;2023-01-15T10:15:19;8.70;93.60
7562;DHT22;3822;48.784;9.174;2023-01-15T10:17:54;8.70;93.60
7562;DHT22;3822;48.784;9.174;2023-01-15T10:21:06;8.60;93.70
7562;DHT22;3822;48.784;9.174;2023-01-15T10:27:26;8.60;93.70
7562;DHT22;3822;48.784;9.174;2023-01-15T10:30:04;9.00;93.90
7562;DHT22;3822;48.784;9.174;2023-01-15T10:32:48;8.50;93.80
7562;DHT22;3822;48.784;9.174;2023-01-15T10:35:39;8.50;93.70
7562;DHT22;3822;48.784;9.174;2023-01-15T10:38:39;8.50;93.90
7562;DHT22;3822;48.784;9.174;2023-01-15T10:46:31;8.60;94.30
7562;DHT22;3822;48.784;9.174;2023-01-15T10:49:05;8.50;94.20
7562;DHT22;3822;48.784;9.174;2023-01-15T10:51:57;8.50;94.20
7562;DHT22;3822;48.784;9.174;2023-01-15T10:54:37;8.50;94.10
7562;DHT22;3822;48.784;9.174;2023-01-15T10:57:27;8.40;94.10
7562;DHT22;3822;48.784;9.174;2023-01-15T11:00:09;8.40;94.00
7562;DHT22;3822;48.784;9.174;2023-01-15T11:02:44;8.40;93.90
7562;DHT22;3822;48.784;9.174;2023-01-15T11:05:16;8.30;93.80
7562;DHT22;3822;48.784;9.174;2023-01-15T11:07:46;8.20;93.60
7562;DHT22;3822;48.784;9.174;2023-01-15T11:10:18;8.10;93.30
7562;DHT22;3822;48.784;9.174;2023-01-15T11:13:21;7.90;93.20
7562;DHT22;3822;48.784;9.174;2023-01-15T11:16:20;7.70;93.00
7562;DHT22;3822;48.784;9.174;2023-01-15T11:19:23;7.60;93.10
7562;DHT22;3822;48.784;9.174;2023-01-15T11:24:47;7.30;93.20
7562;DHT22;3822;48.784;9.174;2023-01-15T11:27:28;7.30;93.20
7562;DHT22;3822;48.784;9.174;2023-01-15T11:29:59;7.50;93.40
7562;DHT22;3822;48.784;9.174;2023-01-15T11:32:36;7.10;93.30
7562;DHT22;3822;48.784;9.174;2023-01-15T11:35:15;7.00;93.40
7562;DHT22;3822;48.784;9.174;2023-01-15T11:37:43;7.00;93.50
7562;DHT22;3822;48.784;9.174;2023-01-15T11:40:20;6.90;93.60
7562;DHT22;3822;48.784;9.174;2023-01-15T11:42:50;6.90;93.60
7562;DHT22;3822;48.784;9.174;2023-01-15T11:45:49;6.90;93.60
7562;DHT22;3822;48.784;9.174;2023-01-15T11:48:44;6.90;93.70
7562;DHT22;3822;48.784;9.174;2023-01-15T11:51:39;6.80;93.70
7562;DHT22;3822;48.784;9.174;2023-01-15T11:54:11;6.80;93.70
7562;DHT22;3822;48.784;9.174;2023-01-15T11:56:41;6.70;93.70
7562;DHT22;3822;48.784;9.174;2023-01-15T11:59:13;6.80;93.80
7562;DHT22;3822;48.784;9.174;2023-01-15T12:02:01;6.80;93.70
7562;DHT22;3822;48.784;9.174;2023-01-15T12:04:37;6.80;93.70
7562;DHT22;3822;48.784;9.174;2023-01-15T12:07:12;6.70;93.60
7562;DHT22;3822;48.784;9.174;2023-01-15T12:15:52;6.60;93.50
7562;DHT22;3822;48.784;9.174;2023-01-15T12:21:41;6.60;93.60
7562;DHT22;3822;48.784;9.174;2023-01-15T12:24:38;6.50;93.40
7562;DHT22;3822;48.784;9.174;2023-01-15T12:29:50;6.40;93.40
7562;DHT22;3822;48.784;9.174;2023-01-15T12:32:23;6.40;93.40
7562;DHT22;3822;48.784;9.174;2023-01-15T12:35:32;8.10;94.20
7562;DHT22;3822;48.784;9.174;2023-01-15T12:38:15;6.40;93.50
7562;DHT22;3822;48.784;9.174;2023-01-15T12:40:58;6.40;93.50
7562;DHT22;3822;48.784;9.174;2023-01-15T12:43:27;6.40;93.50
7562;DHT22;3822;48.784;9.174;2023-01-15T12:46:25;6.40;93.50
7562;DHT22;3822;48.784;9.174;2023-01-15T12:49:14;6.40;93.50
7562;DHT22;3822;48.784;9.174;2023-01-15T12:52:07;6.30;93.50
7562;DHT22;3822;48.784;9.174;2023-01-15T12:54:43;6.30;93.40
7562;DHT22;3822;48.784;9.174;2023-01-15T12:57:37;6.30;93.30
7562;DHT22;3822;48.784;9.174;2023-01-15T13:03:26;6.30;93.30
7562;DHT22;3822;48.784;9.174;2023-01-15T13:05:57;6.30;93.40
7562;DHT22;3822;48.784;9.174;2023-01-15T13:11:15;6.50;93.40
7562;DHT22;3822;48.784;9.174;2023-01-15T13:13:43;6.50;93.20
7562;DHT22;3822;48.784;9.174;2023-01-15T13:16:52;6.50;93.20
7562;DHT22;3822;48.784;9.174;2023-01-15T13:22:45;6.60;93.30
7562;DHT22;3822;48.784;9.174;2023-01-15T13:25:39;6.60;93.20
7562;DHT22;3822;48.784;9.174;2023-01-15T13:28:33;6.70;93.30
7562;DHT22;3822;48.784;9.174;2023-01-15T13:31:55;6.70;93.20
7562;DHT22;3822;48.784;9.174;2023-01-15T13:37:41;6.80;93.10
7562;DHT22;3822;48.784;9.174;2023-01-15T13:40:21;6.90;93.00
7562;DHT22;3822;48.784;9.174;2023-01-15T13:42:54;6.90;92.90
7562;DHT22;3822;48.784;9.174;2023-01-15T13:45:35;6.90;92.80
7562;DHT22;3822;48.784;9.174;2023-01-15T13:48:12;7.00;92.90
7562;DHT22;3822;48.784;9.174;2023-01-15T13:50:57;7.00;92.80
7562;DHT22;3822;48.784;9.174;2023-01-15T13:53:45;7.00;92.70
7562;DHT22;3822;48.784;9.174;2023-01-15T13:56:23;7.10;92.70
7562;DHT22;3822;48.784;9.174;2023-01-15T13:58:55;7.20;92.80
7562;DHT22;3822;48.784;9.174;2023-01-15T14:01:34;7.30;92.90
7562;DHT22;3822;48.784;9.174;2023-01-15T14:06:36;7.60;92.10
7562;DHT22;3822;48.784;9.174;2023-01-15T14:28:30;9.90;90.40
7562;DHT22;3822;48.784;9.174;2023-01-15T14:31:13;10.40;89.90
7562;DHT22;3822;48.784;9.174;2023-01-15T14:34:15;10.80;88.10
7562;DHT22;3822;48.784;9.174;2023-01-15T14:36:50;11.20;86.40
7562;DHT22;3822;48.784;9.174;2023-01-15T14:47:48;11.90;83.50
7562;DHT22;3822;48.784;9.174;2023-01-15T14:56:02;12.80;81.00
7562;DHT22;3822;48.784;9.174;2023-01-15T14:58:44;12.80;79.00
7562;DHT22;3822;48.784;9.174;2023-01-15T15:01:38;12.60;78.10
7562;DHT22;3822;48.784;9.174;2023-01-15T15:04:20;12.30;78.00
7562;DHT22;3822;48.784;9.174;2023-01-15T15:06:59;12.00;78.60
7562;DHT22;3822;48.784;9.174;2023-01-15T15:10:13;11.70;77.50
7562;DHT22;3822;48.784;9.174;2023-01-15T15:16:12;10.90;77.90
7562;DHT22;3822;48.784;9.174;2023-01-15T15:18:59;10.60;77.90
7562;DHT22;3822;48.784;9.174;2023-01-15T15:21:32;10.40;78.40
7562;DHT22;3822;48.784;9.174;2023-01-15T15:27:13;9.90;80.00
7562;DHT22;3822;48.784;9.174;2023-01-15T15:29:45;9.70;80.10
7562;DHT22;3822;48.784;9.174;2023-01-15T15:32:19;9.50;80.70
7562;DHT22;3822;48.784;9.174;2023-01-15T15:34:49;9.40;81.00
7562;DHT22;3822;48.784;9.174;2023-01-15T15:37:27;9.20;82.00
7562;DHT22;3822;48.784;9.174;2023-01-15T15:50:58;8.50;83.10
7562;DHT22;3822;48.784;9.174;2023-01-15T15:53:26;8.40;83.40
7562;DHT22;3822;48.784;9.174;2023-01-15T15:55:54;8.40;83.80
7562;DHT22;3822;48.784;9.174;2023-01-15T15:58:23;8.30;84.00
7562;DHT22;3822;48.784;9.174;2023-01-15T16:00:52;8.30;84.20
7562;DHT22;3822;48.784;9.174;2023-01-15T16:03:23;8.30;84.40
7562;DHT22;3822;48.784;9.174;2023-01-15T16:06:03;8.20;84.60
7562;DHT22;3822;48.784;9.174;2023-01-15T16:08:33;8.20;84.80
7562;DHT22;3822;48.784;9.174;2023-01-15T16:11:05;8.20;85.00
7562;DHT22;3822;48.784;9.174;2023-01-15T16:13:43;8.20;85.10
7562;DHT22;3822;48.784;9.174;2023-01-15T16:16:12;8.20;85.10
7562;DHT22;3822;48.784;9.174;2023-01-15T16:18:43;8.20;85.20
7562;DHT22;3822;48.784;9.174;2023-01-15T16:21:32;8.20;85.30
7562;DHT22;3822;48.784;9.174;2023-01-15T16:24:05;7.60;84.80
7562;DHT22;3822;48.784;9.174;2023-01-15T16:26:34;8.20;85.30
7562;DHT22;3822;48.784;9.174;2023-01-15T16:29:22;8.10;85.50
7562;DHT22;3822;48.784;9.174;2023-01-15T16:31:51;8.10;85.60
7562;DHT22;3822;48.784;9.174;2023-01-15T16:34:27;8.10;85.70
7562;DHT22;3822;48.784;9.174;2023-01-15T16:36:55;8.10;85.70
7562;DHT22;3822;48.784;9.174;2023-01-15T16:41:57;8.10;85.80
7562;DHT22;3822;48.784;9.174;2023-01-15T16:44:41;8.10;85.70
7562;DHT22;3822;48.784;9.174;2023-01-15T16:47:27;8.00;85.60
7562;DHT22;3822;48.784;9.174;2023-01-15T16:52:53;8.00;85.80
7562;DHT22;3822;48.784;9.174;2023-01-15T16:55:38;7.90;85.80
7562;DHT22;3822;48.784;9.174;2023-01-15T16:58:18;7.90;85.90
7562;DHT22;3822;48.784;9.174;2023-01-15T17:00:52;7.90;85.90
7562;DHT22;3822;48.784;9.174;2023-01-15T17:03:22;7.90;86.00
7562;DHT22;3822;48.784;9.174;2023-01-15T17:05:53;7.90;86.00
7562;DHT22;3822;48.784;9.174;2023-01-15T17:08:35;7.90;86.10
7562;DHT22;3822;48.784;9.174;2023-01-15T17:11:14;7.90;86.60
7562;DHT22;3822;48.784;9.174;2023-01-15T17:13:43;7.90;86.10
7562;DHT22;3822;48.784;9.174;2023-01-15T17:16:21;7.80;86.10
7562;DHT22;3822;48.784;9.174;2023-01-15T17:18:49;7.80;86.00
7562;DHT22;3822;48.784;9.174;2023-01-15T17:21:19;7.80;86.10
7562;DHT22;3822;48.784;9.174;2023-01-15T17:23:55;7.80;86.90
7562;DHT22;3822;48.784;9.174;2023-01-15T17:26:24;7.70;86.20
7562;DHT22;3822;48.784;9.174;2023-01-15T17:28:52;7.70;86.40
7562;DHT22;3822;48.784;9.174;2023-01-15T17:31:30;7.70;86.10
7562;DHT22;3822;48.784;9.174;2023-01-15T17:34:00;7.80;86.30
7562;DHT22;3822;48.784;9.174;2023-01-15T17:36:28;7.60;86.40
7562;DHT22;3822;48.784;9.174;2023-01-15T17:38:55;7.60;86.40
7562;DHT22;3822;48.784;9.174;2023-01-15T17:41:23;7.60;86.50
7562;DHT22;3822;48.784;9.174;2023-01-15T17:43:49;7.50;86.50
7562;DHT22;3822;48.784;9.174;2023-01-15T17:46:16;7.50;86.50
7562;DHT22;3822;48.784;9.174;2023-01-15T17:48:43;7.70;86.90
7562;DHT22;3822;48.784;9.174;2023-01-15T17:51:14;7.50;86.90
7562;DHT22;3822;48.784;9.174;2023-01-15T17:53:42;7.40;86.80
7562;DHT22;3822;48.784;9.174;2023-01-15T17:56:08;7.40;86.80
7562;DHT22;3822;48.784;9.174;2023-01-15T17:58:53;7.40;86.80
7562;DHT22;3822;48.784;9.174;2023-01-15T18:01:44;7.80;87.20
7562;DHT22;3822;48.784;9.174;2023-01-15T18:04:43;7.30;86.90
7562;DHT22;3822;48.784;9.174;2023-01-15T18:07:37;7.50;87.30
7562;DHT22;3822;48.784;9.174;2023-01-15T18:10:08;7.30;87.10
7562;DHT22;3822;48.784;9.174;2023-01-15T18:12:35;7.30;87.20
7562;DHT22;3822;48.784;9.174;2023-01-15T18:15:02;7.20;87.30
7562;DHT22;3822;48.784;9.174;2023-01-15T18:17:29;7.20;87.30
7562;DHT22;3822;48.784;9.174;2023-01-15T18:19:56;7.20;87.40
7562;DHT22;3822;48.784;9.174;2023-01-15T18:22:23;7.10;87.30
7562;DHT22;3822;48.784;9.174;2023-01-15T18:24:49;7.20;87.50
7562;DHT22;3822;48.784;9.174;2023-01-15T18:27:16;7.10;87.50
7562;DHT22;3822;48.784;9.174;2023-01-15T18:29:42;7.10;87.40
7562;DHT22;3822;48.784;9.174;2023-01-15T18:32:09;7.10;87.40
7562;DHT22;3822;48.784;9.174;2023-01-15T18:38:17;7.00;87.50
7562;DHT22;3822;48.784;9.174;2023-01-15T18:40:45;7.10;87.60
7562;DHT22;3822;48.784;9.174;2023-01-15T18:43:12;6.90;87.50
7562;DHT22;3822;48.784;9.174;2023-01-15T18:45:57;6.90;87.50
7562;DHT22;3822;48.784;9.174;2023-01-15T18:48:58;6.90;87.60
7562;DHT22;3822;48.784;9.174;2023-01-15T18:51:26;6.80;87.50
7562;DHT22;3822;48.784;9.174;2023-01-15T18:56:56;6.70;87.70
7562;DHT22;3822;48.784;9.174;2023-01-15T18:59:23;6.90;88.60
7562;DHT22;3822;48.784;9.174;2023-01-15T19:01:49;6.80;87.90
7562;DHT22;3822;48.784;9.174;2023-01-15T19:04:16;6.60;87.90
7562;DHT22;3822;48.784;9.174;2023-01-15T19:06:42;6.60;87.80
7562;DHT22;3822;48.784;9.174;2023-01-15T19:09:09;6.60;87.90
7562;DHT22;3822;48.784;9.174;2023-01-15T19:11:38;6.60;87.90
7562;DHT22;3822;48.784;9.174;2023-01-15T19:14:05;6.50;87.80